World of Logs combat log analyzer allows gamers to save, share and analyze their raiding experiences conveniently and thoroughly in the Blizzard MMO World of Warcraft. If you're new here, make sure you check out the tour for a 1 minute introduction. If you have any questions, we're happy to answer them on the forums.

DPS HPS
Odyn
Helya
Guarm
Reports for Twilight Ascendant Council - statistics
# Date Time Damage DPS Guild Realm
401 08 Jul 2012 02:04 23.69M 189633.4 Steinis-Petshop EU-Alleria
402 12 Apr 2012 02:04 24.24M 194059.0 who cares EU-Destromath
403 02 May 2012 02:04 24.17M 193472.6 Haven US-Lethon
404 07 Feb 2012 02:04 24.21M 193695.0 Банкроты истории EU-Свежеватель Душ
405 06 Feb 2012 02:05 24.25M 193743.9 Just Me Myself and I US-Stormrage
406 15 Jul 2012 02:05 24.27M 193895.1 Encore US-Illidan
407 22 Aug 2012 02:05 24.50M 195744.7 Havoc US-Khadgar
408 02 Aug 2012 02:05 24.35M 194470.7 Moronic Impression EU-Frostwhisper
409 03 Jul 2012 02:05 25.11M 200528.5 Simple Math US-Andorhal
410 05 Mar 2012 02:05 24.42M 194863.2 Equalize EU-Doomhammer
411 19 Apr 2012 02:05 24.27M 193670.8 Brave New World US-Dath'Remar
412 15 Aug 2012 02:05 24.60M 196285.7 Raidasyl [Gummieulenbande] EU-Blackrock
413 15 Mar 2012 02:05 24.91M 198723.6 Xin US-Turalyon
414 12 Jul 2012 02:05 24.11M 192359.0 epoch EU-Mal'Ganis
415 07 Nov 2011 02:05 24.40M 194537.5 Eternal Reign US-Lightbringer
416 05 Jul 2012 02:05 24.41M 194533.5 Rhythm EU-Tarren Mill
417 23 Jul 2012 02:05 24.49M 195149.6 Derp Slurpington US-Illidan
418 07 Mar 2012 02:05 24.89M 198307.3 Ninjapartio EU-Darksorrow
419 04 Aug 2012 02:05 24.38M 194212.8 Pandemonium US-Windrunner
420 02 Mar 2012 02:05 24.45M 194733.4 Busido EU-Ревущий фьорд
421 23 Aug 2012 02:05 24.43M 194585.9 macdonald EU-Sargeras
422 24 Jul 2012 02:05 23.63M 188174.0 Project Casual2 US-Haomarush
423 15 Mar 2012 02:05 24.91M 198264.9 piss US-Mal'Ganis
424 15 Apr 2012 02:05 24.46M 194511.2 Flaming Gaze Tim US-Arygos
425 18 Jun 2012 02:05 24.34M 193234.7 Sacred Vow US-Sargeras
426 16 Apr 2012 02:05 24.39M 193617.3 I impact I EU-Blackmoore
427 18 Mar 2012 02:05 24.13M 191586.6 Nossy US-Gorefiend
428 04 May 2012 02:06 24.55M 194592.2 CRITBANNER'S GUILD US-Barthilas
429 05 Feb 2012 02:06 24.41M 193305.7 eXCidium EU-Alleria
430 13 Jun 2012 02:06 24.70M 195461.1 Pie Chart US-Bleeding Hollow
431 25 Aug 2012 02:06 25.17M 199172.2 Sagbruk EU-Stormreaver
432 21 Apr 2012 02:06 24.16M 191149.0 Inhume EU-Blackmoore
433 01 Apr 2012 02:06 23.89M 188941.0 Нагльфар EU-Азурегос
434 16 Apr 2012 02:06 24.71M 195336.2 Der Vergessene Kult EU-Zirkel des Cenarius
435 04 Aug 2012 02:06 24.06M 190196.3 CHEESY OMELETS GOES HARDDDDDD US-Turalyon
436 04 Apr 2012 02:06 24.24M 191543.4 Zax US-Arygos
437 02 Jul 2012 02:06 24.95M 197131.9 Chubby Chicken US-Tichondrius
438 04 Apr 2012 02:06 24.24M 191478.4 <Regime> MANG US-Arygos
439 04 Apr 2012 02:06 24.24M 191472.3 Regime US-Arygos
440 17 Mar 2012 02:06 24.50M 193503.1 Fresh Baked Puns US-Arygos
441 18 Dec 2011 02:06 23.46M 185298.6 Ninth Order EU-Frostmane
442 16 Aug 2012 02:06 24.25M 191443.4 Nery's Logs US-Whisperwind
443 06 Oct 2011 02:06 25.10M 198146.6 Echoes EU-Garona
444 22 Jul 2012 02:06 24.44M 192836.1 MB US-Eredar
445 15 Aug 2012 02:06 24.44M 192794.2 Infamy US-Proudmoore
446 10 May 2012 02:06 24.75M 195203.6 Circle of Justice EU-Defias Brotherhood
447 20 Mar 2012 02:06 24.62M 194105.6 Duality US-Zul'jin
448 26 Jul 2012 02:06 23.95M 188835.1 Moral Decay EU-Sunstrider
449 20 Aug 2012 02:06 24.25M 191181.6 Ikona EU-Kazzak
450 28 Mar 2012 02:06 24.97M 196801.1 Pay U EU-Sargeras
451 29 Mar 2012 02:06 24.69M 194481.2 Бомжи с берсерка (10) EU-Ревущий фьорд
452 23 Dec 2011 02:06 23.75M 187050.0 Rupture EU-Archimonde
453 19 Dec 2011 02:06 24.68M 194362.2 Restricted EU-La Croisade écarlate
454 11 Apr 2012 02:06 24.57M 193463.9 Лесько Logs EU-Свежеватель Душ
455 03 Mar 2012 02:07 24.23M 190790.4 GDKP Infinitum EU-Neptulon
456 19 Jul 2012 02:07 24.00M 188798.7 pecopito le roi du gato EU-Elune
457 02 Jul 2012 02:07 25.09M 197326.0 Raging Force EU-Ragnaros
458 29 Jul 2012 02:07 25.19M 198097.7 temp EU-Ревущий фьорд
459 26 Jul 2012 02:07 24.19M 190234.0 Post Mortem US-Kilrogg
460 06 Aug 2012 02:07 24.96M 196303.6 Conclave US-Dath'Remar
461 19 Aug 2012 02:07 23.98M 188429.7 Monolith US-Llane
462 12 Aug 2012 02:07 25.13M 197384.7 Vanity EU-Mal'Ganis
463 01 Aug 2012 02:07 24.93M 195820.9 Reanimation US-Barthilas
464 25 Mar 2012 02:07 25.30M 198670.5 Irrlycht's WoL EU-Arthas
465 05 Aug 2012 02:07 24.39M 191533.7 chaminita EU-Dun Modr
466 19 Aug 2012 02:07 24.52M 192545.9 Siegesrausch EU-Antonidas
467 06 Aug 2012 02:07 24.43M 191741.1 Keltori EU-Draenor
468 31 May 2012 02:07 24.10M 189079.0 Disbanded R2 EU-Drak'thul
469 03 Apr 2012 02:07 24.52M 192364.1 Horizon EU-Lothar
470 14 May 2012 02:07 24.72M 193913.8 Milmarien log's EU-Гордунни
471 20 May 2012 02:07 24.40M 191335.9 Lando EU-Свежеватель Душ
472 09 May 2012 02:07 23.84M 186746.2 strike EU-Дракономор
473 22 Jul 2012 02:07 24.89M 194931.0 Philosophers Stone EU-Eonar
474 19 Apr 2012 02:07 25.26M 197825.9 Ye Olde Goone Squade EU-Defias Brotherhood
475 14 May 2012 02:07 24.72M 193550.9 РусЛегион EU-Гордунни
476 24 Jun 2012 02:07 24.48M 191657.7 Philosophers Stone EU-Eonar
477 29 Mar 2012 02:07 23.77M 185915.2 Беллум EU-Ревущий фьорд
478 26 Feb 2012 02:07 24.55M 191866.6 Accession US-Stormreaver
479 01 Apr 2012 02:08 24.34M 190108.5 The Professionals US-Wyrmrest Accord
480 06 Jul 2012 02:08 24.57M 191913.8 Бич с ЧШ EU-Король-лич
481 02 Feb 2012 02:08 24.17M 188689.0 Tyrkisk Peber EU-Ragnaros
482 01 Aug 2012 02:08 24.40M 190470.0 Магнум EU-Гордунни
483 29 Feb 2012 02:08 24.50M 191213.0 Internecion US-Stormreaver
484 08 Jun 2012 02:08 25.13M 196012.3 TNT Company EU-Kazzak
485 15 Jul 2012 02:08 24.27M 189305.8 Соломкина статистика EU-Черный Шрам
486 18 Aug 2012 02:08 24.27M 189234.4 Gaara EU-Ревущий фьорд
487 29 Feb 2012 02:08 24.47M 190701.4 Poschtn EU-Malygos
488 15 Mar 2012 02:08 24.25M 188866.7 Созвездие EU-Вечная Песня
489 31 Jul 2012 02:08 24.62M 191712.5 Verokk's logs EU-Grim Batol
490 20 Aug 2012 02:08 25.02M 194708.2 Last Word US-Ner'zhul
491 03 Aug 2012 02:08 24.31M 189179.2 Créatures, Evenom & Exhorder's Logs EU-Ysondre
492 26 Jul 2012 02:08 24.49M 190545.9 Smaragdwache EU-Der Rat von Dalaran
493 19 May 2012 02:08 24.88M 193444.0 So ist Es EU-Blackrock
494 20 Mar 2012 02:08 24.37M 189304.8 Challenge Accepted US-Khadgar
495 04 Mar 2012 02:08 24.73M 192021.3 Созвездие EU-Вечная Песня
496 26 Mar 2012 02:08 24.11M 187010.6 DepthcoreAlt EU-Ravencrest
497 14 Apr 2012 02:08 24.40M 189150.1 I´ve got an Epic EU-Blackmoore
498 21 May 2012 02:08 24.85M 192654.1 Sacred Vow US-Sargeras
499 20 Aug 2012 02:09 24.95M 193324.4 Elandora US-Mannoroth
500 21 Aug 2012 02:09 24.95M 193281.0 Spectie's logs US-Mannoroth

Please do not close the page with the ad you want to report.

I've posted a guide on how to report misbehaving ads on the forum. Please follow the instructions and help make the internet a safer place. Thanks for you time.